sensor_id;sensor_type;location;lat;lon;timestamp;temperature;humidity
21518;DHT22;61765;45.794;24.150;2023-07-29T00:07:33;22.40;81.60
21518;DHT22;61765;45.794;24.150;2023-07-29T00:15:39;22.50;81.60
21518;DHT22;61765;45.794;24.150;2023-07-29T00:23:47;22.20;82.80
21518;DHT22;61765;45.794;24.150;2023-07-29T00:31:52;21.90;83.00
21518;DHT22;61765;45.794;24.150;2023-07-29T00:40:00;22.00;82.60
21518;DHT22;61765;45.794;24.150;2023-07-29T00:48:06;22.10;81.50
21518;DHT22;61765;45.794;24.150;2023-07-29T00:56:14;21.90;82.40
21518;DHT22;61765;45.794;24.150;2023-07-29T01:04:19;21.90;82.40
21518;DHT22;61765;45.794;24.150;2023-07-29T01:12:37;21.90;82.70
21518;DHT22;61765;45.794;24.150;2023-07-29T01:20:44;21.80;83.20
21518;DHT22;61765;45.794;24.150;2023-07-29T01:28:53;21.70;83.90
21518;DHT22;61765;45.794;24.150;2023-07-29T01:37:00;21.90;82.80
21518;DHT22;61765;45.794;24.150;2023-07-29T01:45:10;21.80;83.50
21518;DHT22;61765;45.794;24.150;2023-07-29T01:53:16;21.80;83.60
21518;DHT22;61765;45.794;24.150;2023-07-29T02:01:24;21.80;83.30
21518;DHT22;61765;45.794;24.150;2023-07-29T02:09:30;21.70;83.20
21518;DHT22;61765;45.794;24.150;2023-07-29T02:17:41;21.50;83.80
21518;DHT22;61765;45.794;24.150;2023-07-29T02:25:47;21.50;83.80
21518;DHT22;61765;45.794;24.150;2023-07-29T02:33:55;21.40;84.40
21518;DHT22;61765;45.794;24.150;2023-07-29T02:42:01;21.40;84.40
21518;DHT22;61765;45.794;24.150;2023-07-29T02:50:09;21.40;84.20
21518;DHT22;61765;45.794;24.150;2023-07-29T02:58:15;21.40;84.00
21518;DHT22;61765;45.794;24.150;2023-07-29T03:06:23;21.30;84.30
21518;DHT22;61765;45.794;24.150;2023-07-29T03:14:29;21.20;84.10
21518;DHT22;61765;45.794;24.150;2023-07-29T03:22:37;21.20;85.00
21518;DHT22;61765;45.794;24.150;2023-07-29T03:30:43;21.10;84.90
21518;DHT22;61765;45.794;24.150;2023-07-29T03:38:51;21.10;85.20
21518;DHT22;61765;45.794;24.150;2023-07-29T03:46:57;21.10;85.40
21518;DHT22;61765;45.794;24.150;2023-07-29T03:55:06;21.20;86.10
21518;DHT22;61765;45.794;24.150;2023-07-29T04:03:11;21.40;84.40
21518;DHT22;61765;45.794;24.150;2023-07-29T04:11:20;21.60;83.80
21518;DHT22;61765;45.794;24.150;2023-07-29T04:19:25;22.10;82.50
21518;DHT22;61765;45.794;24.150;2023-07-29T04:27:34;22.30;81.60
21518;DHT22;61765;45.794;24.150;2023-07-29T04:35:40;22.50;81.20
21518;DHT22;61765;45.794;24.150;2023-07-29T04:43:48;22.60;81.30
21518;DHT22;61765;45.794;24.150;2023-07-29T04:51:54;23.00;79.90
21518;DHT22;61765;45.794;24.150;2023-07-29T05:00:03;23.40;78.60
21518;DHT22;61765;45.794;24.150;2023-07-29T05:08:08;23.30;79.40
21518;DHT22;61765;45.794;24.150;2023-07-29T05:16:16;23.40;79.80
21518;DHT22;61765;45.794;24.150;2023-07-29T05:24:22;23.80;79.00
21518;DHT22;61765;45.794;24.150;2023-07-29T05:32:30;24.10;78.20
21518;DHT22;61765;45.794;24.150;2023-07-29T05:40:35;24.80;77.20
21518;DHT22;61765;45.794;24.150;2023-07-29T05:48:43;25.60;75.30
21518;DHT22;61765;45.794;24.150;2023-07-29T05:56:49;26.20;73.40
21518;DHT22;61765;45.794;24.150;2023-07-29T06:04:57;26.90;72.00
21518;DHT22;61765;45.794;24.150;2023-07-29T06:13:03;27.60;70.80
21518;DHT22;61765;45.794;24.150;2023-07-29T06:21:11;28.20;69.90
21518;DHT22;61765;45.794;24.150;2023-07-29T06:29:19;28.90;64.90
21518;DHT22;61765;45.794;24.150;2023-07-29T06:37:27;29.20;66.50
21518;DHT22;61765;45.794;24.150;2023-07-29T06:45:33;29.90;64.60
21518;DHT22;61765;45.794;24.150;2023-07-29T06:53:41;30.30;63.50
21518;DHT22;61765;45.794;24.150;2023-07-29T07:01:46;30.80;61.90
21518;DHT22;61765;45.794;24.150;2023-07-29T07:09:54;31.30;59.10
21518;DHT22;61765;45.794;24.150;2023-07-29T07:18:02;31.30;59.70
21518;DHT22;61765;45.794;24.150;2023-07-29T07:26:11;31.70;58.90
21518;DHT22;61765;45.794;24.150;2023-07-29T07:34:16;31.80;58.90
21518;DHT22;61765;45.794;24.150;2023-07-29T07:42:24;32.20;57.00
21518;DHT22;61765;45.794;24.150;2023-07-29T07:50:30;32.30;57.00
21518;DHT22;61765;45.794;24.150;2023-07-29T07:58:38;32.40;56.10
21518;DHT22;61765;45.794;24.150;2023-07-29T08:06:43;32.50;56.10
21518;DHT22;61765;45.794;24.150;2023-07-29T08:14:52;32.90;56.60
21518;DHT22;61765;45.794;24.150;2023-07-29T08:22:57;33.00;56.80
21518;DHT22;61765;45.794;24.150;2023-07-29T08:31:06;33.20;56.90
21518;DHT22;61765;45.794;24.150;2023-07-29T08:39:11;33.30;57.00
21518;DHT22;61765;45.794;24.150;2023-07-29T08:47:19;33.40;56.90
21518;DHT22;61765;45.794;24.150;2023-07-29T08:55:25;33.80;56.20
21518;DHT22;61765;45.794;24.150;2023-07-29T09:03:34;34.40;56.30
21518;DHT22;61765;45.794;24.150;2023-07-29T09:11:40;35.00;56.50
21518;DHT22;61765;45.794;24.150;2023-07-29T09:19:50;35.70;55.80
21518;DHT22;61765;45.794;24.150;2023-07-29T09:27:58;35.90;53.90
21518;DHT22;61765;45.794;24.150;2023-07-29T09:36:11;35.90;53.70
21518;DHT22;61765;45.794;24.150;2023-07-29T09:44:16;36.00;53.80
21518;DHT22;61765;45.794;24.150;2023-07-29T09:52:25;35.70;53.50
21518;DHT22;61765;45.794;24.150;2023-07-29T10:00:31;35.50;53.80
21518;DHT22;61765;45.794;24.150;2023-07-29T10:08:40;35.30;55.10
21518;DHT22;61765;45.794;24.150;2023-07-29T10:16:46;35.60;55.20
21518;DHT22;61765;45.794;24.150;2023-07-29T10:24:56;35.50;55.00
21518;DHT22;61765;45.794;24.150;2023-07-29T10:33:05;35.30;55.30
21518;DHT22;61765;45.794;24.150;2023-07-29T10:41:15;35.40;54.10
21518;DHT22;61765;45.794;24.150;2023-07-29T10:49:23;35.30;54.90
21518;DHT22;61765;45.794;24.150;2023-07-29T10:57:38;35.70;54.60
21518;DHT22;61765;45.794;24.150;2023-07-29T11:05:46;36.50;53.70
21518;DHT22;61765;45.794;24.150;2023-07-29T11:13:55;37.60;52.20
21518;DHT22;61765;45.794;24.150;2023-07-29T11:22:01;38.10;51.80
21518;DHT22;61765;45.794;24.150;2023-07-29T11:30:11;38.30;52.00
21518;DHT22;61765;45.794;24.150;2023-07-29T11:38:18;38.70;51.00
21518;DHT22;61765;45.794;24.150;2023-07-29T11:46:27;40.70;48.90
21518;DHT22;61765;45.794;24.150;2023-07-29T11:54:32;41.90;47.20
21518;DHT22;61765;45.794;24.150;2023-07-29T12:02:42;45.00;43.00
21518;DHT22;61765;45.794;24.150;2023-07-29T12:10:49;44.10;42.20
21518;DHT22;61765;45.794;24.150;2023-07-29T12:19:00;45.20;43.40
21518;DHT22;61765;45.794;24.150;2023-07-29T12:27:09;51.10;38.10
21518;DHT22;61765;45.794;24.150;2023-07-29T12:35:18;51.10;36.10
21518;DHT22;61765;45.794;24.150;2023-07-29T12:43:24;54.80;35.40
21518;DHT22;61765;45.794;24.150;2023-07-29T12:51:32;61.20;31.10
21518;DHT22;61765;45.794;24.150;2023-07-29T12:59:38;63.80;28.40
21518;DHT22;61765;45.794;24.150;2023-07-29T13:07:46;63.20;28.10
21518;DHT22;61765;45.794;24.150;2023-07-29T13:15:52;59.70;28.40
21518;DHT22;61765;45.794;24.150;2023-07-29T13:24:00;55.00;31.30
21518;DHT22;61765;45.794;24.150;2023-07-29T13:32:07;56.80;31.40
21518;DHT22;61765;45.794;24.150;2023-07-29T13:40:15;60.90;28.90
21518;DHT22;61765;45.794;24.150;2023-07-29T13:48:21;58.70;28.30
21518;DHT22;61765;45.794;24.150;2023-07-29T13:56:30;51.30;32.10
21518;DHT22;61765;45.794;24.150;2023-07-29T14:04:36;45.60;37.50
21518;DHT22;61765;45.794;24.150;2023-07-29T14:12:46;42.20;42.00
21518;DHT22;61765;45.794;24.150;2023-07-29T14:20:52;40.20;44.50
21518;DHT22;61765;45.794;24.150;2023-07-29T14:28:59;38.80;46.20
21518;DHT22;61765;45.794;24.150;2023-07-29T14:37:05;37.00;48.00
21518;DHT22;61765;45.794;24.150;2023-07-29T14:45:13;36.30;50.20
21518;DHT22;61765;45.794;24.150;2023-07-29T14:53:19;35.80;51.00
21518;DHT22;61765;45.794;24.150;2023-07-29T15:01:30;35.40;52.20
21518;DHT22;61765;45.794;24.150;2023-07-29T15:09:36;35.10;52.70
21518;DHT22;61765;45.794;24.150;2023-07-29T15:17:44;34.60;53.10
21518;DHT22;61765;45.794;24.150;2023-07-29T15:25:49;34.30;54.30
21518;DHT22;61765;45.794;24.150;2023-07-29T15:33:58;34.40;53.80
21518;DHT22;61765;45.794;24.150;2023-07-29T15:42:04;34.20;52.90
21518;DHT22;61765;45.794;24.150;2023-07-29T15:50:12;33.90;53.40
21518;DHT22;61765;45.794;24.150;2023-07-29T15:58:18;33.80;53.20
21518;DHT22;61765;45.794;24.150;2023-07-29T16:06:27;33.60;53.40
21518;DHT22;61765;45.794;24.150;2023-07-29T16:14:32;33.50;53.80
21518;DHT22;61765;45.794;24.150;2023-07-29T16:22:40;33.40;54.10
21518;DHT22;61765;45.794;24.150;2023-07-29T16:30:45;33.20;54.60
21518;DHT22;61765;45.794;24.150;2023-07-29T16:38:54;33.00;54.50
21518;DHT22;61765;45.794;24.150;2023-07-29T16:46:59;32.80;55.50
21518;DHT22;61765;45.794;24.150;2023-07-29T16:55:09;32.70;56.20
21518;DHT22;61765;45.794;24.150;2023-07-29T17:03:15;32.60;56.30
21518;DHT22;61765;45.794;24.150;2023-07-29T17:11:25;32.30;56.30
21518;DHT22;61765;45.794;24.150;2023-07-29T17:19:30;32.20;57.10
21518;DHT22;61765;45.794;24.150;2023-07-29T17:27:38;32.00;57.30
21518;DHT22;61765;45.794;24.150;2023-07-29T17:35:45;31.80;57.80
21518;DHT22;61765;45.794;24.150;2023-07-29T17:43:54;31.70;59.40
21518;DHT22;61765;45.794;24.150;2023-07-29T18:09:17;31.00;62.40
21518;DHT22;61765;45.794;24.150;2023-07-29T18:17:23;30.70;64.90
21518;DHT22;61765;45.794;24.150;2023-07-29T18:25:31;30.50;67.00
21518;DHT22;61765;45.794;24.150;2023-07-29T18:33:37;30.30;68.40
21518;DHT22;61765;45.794;24.150;2023-07-29T18:41:45;30.10;69.80
21518;DHT22;61765;45.794;24.150;2023-07-29T18:49:50;29.90;70.60
21518;DHT22;61765;45.794;24.150;2023-07-29T18:57:58;29.80;71.00
21518;DHT22;61765;45.794;24.150;2023-07-29T19:06:04;29.60;71.90
21518;DHT22;61765;45.794;24.150;2023-07-29T19:14:12;29.40;72.20
21518;DHT22;61765;45.794;24.150;2023-07-29T19:22:17;29.20;73.20
21518;DHT22;61765;45.794;24.150;2023-07-29T19:30:25;28.90;73.70
21518;DHT22;61765;45.794;24.150;2023-07-29T19:38:31;28.80;74.00
21518;DHT22;61765;45.794;24.150;2023-07-29T19:46:39;28.80;74.00
21518;DHT22;61765;45.794;24.150;2023-07-29T19:54:44;28.60;74.50
21518;DHT22;61765;45.794;24.150;2023-07-29T20:02:52;28.40;74.40
21518;DHT22;61765;45.794;24.150;2023-07-29T20:10:58;28.30;75.40
21518;DHT22;61765;45.794;24.150;2023-07-29T20:19:06;28.10;76.30
21518;DHT22;61765;45.794;24.150;2023-07-29T20:27:12;28.10;76.40
21518;DHT22;61765;45.794;24.150;2023-07-29T20:35:20;28.00;76.50
21518;DHT22;61765;45.794;24.150;2023-07-29T20:43:26;27.90;75.80
21518;DHT22;61765;45.794;24.150;2023-07-29T20:51:34;27.90;76.10
21518;DHT22;61765;45.794;24.150;2023-07-29T20:59:40;27.80;75.80
21518;DHT22;61765;45.794;24.150;2023-07-29T21:07:48;27.70;76.20
21518;DHT22;61765;45.794;24.150;2023-07-29T21:15:53;27.40;77.00
21518;DHT22;61765;45.794;24.150;2023-07-29T21:24:02;27.20;77.50
21518;DHT22;61765;45.794;24.150;2023-07-29T21:32:08;27.00;78.00
21518;DHT22;61765;45.794;24.150;2023-07-29T21:40:16;26.80;79.30
21518;DHT22;61765;45.794;24.150;2023-07-29T21:48:21;26.80;79.10
21518;DHT22;61765;45.794;24.150;2023-07-29T21:56:30;26.60;79.40
21518;DHT22;61765;45.794;24.150;2023-07-29T22:04:36;26.70;79.90
21518;DHT22;61765;45.794;24.150;2023-07-29T22:12:44;26.60;80.80
21518;DHT22;61765;45.794;24.150;2023-07-29T22:20:53;26.50;81.20
21518;DHT22;61765;45.794;24.150;2023-07-29T22:29:01;26.40;80.40
21518;DHT22;61765;45.794;24.150;2023-07-29T22:37:07;26.20;81.00
21518;DHT22;61765;45.794;24.150;2023-07-29T22:45:15;26.10;81.40
21518;DHT22;61765;45.794;24.150;2023-07-29T22:53:20;25.90;81.60
21518;DHT22;61765;45.794;24.150;2023-07-29T23:01:29;25.90;81.00
21518;DHT22;61765;45.794;24.150;2023-07-29T23:09:34;25.70;81.40
21518;DHT22;61765;45.794;24.150;2023-07-29T23:17:43;25.50;83.10
21518;DHT22;61765;45.794;24.150;2023-07-29T23:25:48;25.50;83.40
21518;DHT22;61765;45.794;24.150;2023-07-29T23:33:56;25.40;83.60
21518;DHT22;61765;45.794;24.150;2023-07-29T23:42:02;25.50;84.20
21518;DHT22;61765;45.794;24.150;2023-07-29T23:50:10;25.20;84.40
21518;DHT22;61765;45.794;24.150;2023-07-29T23:58:16;25.40;84.70
